sensor_id;sensor_type;location;lat;lon;timestamp;temperature;humidity
4453;DHT22;2239;48.152;11.584;2023-01-13T00:01:15;8.20;98.60
4453;DHT22;2239;48.152;11.584;2023-01-13T00:03:41;8.20;98.60
4453;DHT22;2239;48.152;11.584;2023-01-13T00:06:11;8.20;98.70
4453;DHT22;2239;48.152;11.584;2023-01-13T00:08:37;8.20;98.60
4453;DHT22;2239;48.152;11.584;2023-01-13T00:11:03;8.20;98.60
4453;DHT22;2239;48.152;11.584;2023-01-13T00:13:29;8.20;98.60
4453;DHT22;2239;48.152;11.584;2023-01-13T00:18:27;8.20;98.60
4453;DHT22;2239;48.152;11.584;2023-01-13T00:23:28;8.30;98.60
4453;DHT22;2239;48.152;11.584;2023-01-13T00:26:05;8.30;98.60
4453;DHT22;2239;48.152;11.584;2023-01-13T00:28:31;8.30;98.60
4453;DHT22;2239;48.152;11.584;2023-01-13T00:31:10;8.30;98.60
4453;DHT22;2239;48.152;11.584;2023-01-13T00:33:37;8.30;98.60
4453;DHT22;2239;48.152;11.584;2023-01-13T00:36:04;8.30;98.60
4453;DHT22;2239;48.152;11.584;2023-01-13T00:38:32;8.30;98.60
4453;DHT22;2239;48.152;11.584;2023-01-13T00:41:04;8.30;98.50
4453;DHT22;2239;48.152;11.584;2023-01-13T00:43:30;8.30;98.50
4453;DHT22;2239;48.152;11.584;2023-01-13T00:45:58;8.30;98.50
4453;DHT22;2239;48.152;11.584;2023-01-13T00:48:24;8.30;98.50
4453;DHT22;2239;48.152;11.584;2023-01-13T00:50:58;8.30;98.50
4453;DHT22;2239;48.152;11.584;2023-01-13T00:53:24;8.30;98.50
4453;DHT22;2239;48.152;11.584;2023-01-13T00:56:02;8.30;98.60
4453;DHT22;2239;48.152;11.584;2023-01-13T00:58:30;8.30;98.50
4453;DHT22;2239;48.152;11.584;2023-01-13T01:01:05;8.40;98.40
4453;DHT22;2239;48.152;11.584;2023-01-13T01:03:31;8.40;98.40
4453;DHT22;2239;48.152;11.584;2023-01-13T01:06:03;8.40;98.40
4453;DHT22;2239;48.152;11.584;2023-01-13T01:08:29;8.40;98.50
4453;DHT22;2239;48.152;11.584;2023-01-13T01:11:05;8.40;98.30
4453;DHT22;2239;48.152;11.584;2023-01-13T01:13:32;8.40;98.30
4453;DHT22;2239;48.152;11.584;2023-01-13T01:15:57;8.50;98.30
4453;DHT22;2239;48.152;11.584;2023-01-13T01:18:23;8.50;98.20
4453;DHT22;2239;48.152;11.584;2023-01-13T01:20:49;8.50;98.00
4453;DHT22;2239;48.152;11.584;2023-01-13T01:23:15;8.50;98.00
4453;DHT22;2239;48.152;11.584;2023-01-13T01:25:40;8.60;97.90
4453;DHT22;2239;48.152;11.584;2023-01-13T01:28:06;8.50;97.80
4453;DHT22;2239;48.152;11.584;2023-01-13T01:30:32;8.60;97.60
4453;DHT22;2239;48.152;11.584;2023-01-13T01:32:59;8.60;97.60
4453;DHT22;2239;48.152;11.584;2023-01-13T01:35:27;8.60;97.60
4453;DHT22;2239;48.152;11.584;2023-01-13T01:37:53;8.60;97.60
4453;DHT22;2239;48.152;11.584;2023-01-13T01:40:18;8.60;97.60
4453;DHT22;2239;48.152;11.584;2023-01-13T01:42:45;8.60;97.50
4453;DHT22;2239;48.152;11.584;2023-01-13T01:45:29;8.60;97.40
4453;DHT22;2239;48.152;11.584;2023-01-13T01:48:01;8.60;97.30
4453;DHT22;2239;48.152;11.584;2023-01-13T01:50:28;8.60;97.20
4453;DHT22;2239;48.152;11.584;2023-01-13T01:53:15;8.60;97.50
4453;DHT22;2239;48.152;11.584;2023-01-13T01:55:42;8.70;97.10
4453;DHT22;2239;48.152;11.584;2023-01-13T01:58:34;8.60;97.00
4453;DHT22;2239;48.152;11.584;2023-01-13T02:01:00;8.70;97.00
4453;DHT22;2239;48.152;11.584;2023-01-13T02:03:26;8.60;96.90
4453;DHT22;2239;48.152;11.584;2023-01-13T02:05:52;8.60;96.90
4453;DHT22;2239;48.152;11.584;2023-01-13T02:08:18;8.70;96.80
4453;DHT22;2239;48.152;11.584;2023-01-13T02:10:49;8.70;96.70
4453;DHT22;2239;48.152;11.584;2023-01-13T02:13:17;8.70;96.60
4453;DHT22;2239;48.152;11.584;2023-01-13T02:16:15;8.70;96.40
4453;DHT22;2239;48.152;11.584;2023-01-13T02:21:26;8.70;96.20
4453;DHT22;2239;48.152;11.584;2023-01-13T02:30:15;8.80;96.00
4453;DHT22;2239;48.152;11.584;2023-01-13T02:33:20;8.70;95.90
4453;DHT22;2239;48.152;11.584;2023-01-13T02:38:55;8.70;95.80
4453;DHT22;2239;48.152;11.584;2023-01-13T02:41:53;8.80;95.80
4453;DHT22;2239;48.152;11.584;2023-01-13T02:44:47;8.80;95.60
4453;DHT22;2239;48.152;11.584;2023-01-13T02:47:20;8.80;95.70
4453;DHT22;2239;48.152;11.584;2023-01-13T02:49:54;8.80;95.80
4453;DHT22;2239;48.152;11.584;2023-01-13T02:52:35;8.80;95.50
4453;DHT22;2239;48.152;11.584;2023-01-13T02:55:06;8.80;95.60
4453;DHT22;2239;48.152;11.584;2023-01-13T02:57:34;8.80;95.50
4453;DHT22;2239;48.152;11.584;2023-01-13T03:00:03;8.80;95.90
4453;DHT22;2239;48.152;11.584;2023-01-13T03:02:30;8.80;95.60
4453;DHT22;2239;48.152;11.584;2023-01-13T03:04:58;8.80;95.50
4453;DHT22;2239;48.152;11.584;2023-01-13T03:07:56;8.80;95.50
4453;DHT22;2239;48.152;11.584;2023-01-13T03:18:23;8.80;95.50
4453;DHT22;2239;48.152;11.584;2023-01-13T03:23:40;8.80;95.60
4453;DHT22;2239;48.152;11.584;2023-01-13T03:26:18;8.90;95.70
4453;DHT22;2239;48.152;11.584;2023-01-13T03:28:58;8.80;95.60
4453;DHT22;2239;48.152;11.584;2023-01-13T03:31:30;8.80;95.80
4453;DHT22;2239;48.152;11.584;2023-01-13T03:34:03;8.70;95.90
4453;DHT22;2239;48.152;11.584;2023-01-13T03:36:31;8.80;95.80
4453;DHT22;2239;48.152;11.584;2023-01-13T03:39:06;8.80;95.70
4453;DHT22;2239;48.152;11.584;2023-01-13T03:44:11;8.80;95.80
4453;DHT22;2239;48.152;11.584;2023-01-13T03:47:00;8.80;95.80
4453;DHT22;2239;48.152;11.584;2023-01-13T03:50:20;8.80;95.80
4453;DHT22;2239;48.152;11.584;2023-01-13T03:52:26;8.80;95.80
4453;DHT22;2239;48.152;11.584;2023-01-13T03:55:02;8.80;95.80
4453;DHT22;2239;48.152;11.584;2023-01-13T03:57:34;8.90;95.70
4453;DHT22;2239;48.152;11.584;2023-01-13T04:00:03;8.90;95.70
4453;DHT22;2239;48.152;11.584;2023-01-13T04:02:39;8.80;95.70
4453;DHT22;2239;48.152;11.584;2023-01-13T04:05:08;8.80;95.70
4453;DHT22;2239;48.152;11.584;2023-01-13T04:10:30;8.90;95.50
4453;DHT22;2239;48.152;11.584;2023-01-13T04:13:13;8.90;95.50
4453;DHT22;2239;48.152;11.584;2023-01-13T04:15:45;8.90;95.30
4453;DHT22;2239;48.152;11.584;2023-01-13T04:20:39;9.00;95.00
4453;DHT22;2239;48.152;11.584;2023-01-13T04:23:05;9.00;94.70
4453;DHT22;2239;48.152;11.584;2023-01-13T04:25:31;9.10;94.60
4453;DHT22;2239;48.152;11.584;2023-01-13T04:27:57;9.10;94.30
4453;DHT22;2239;48.152;11.584;2023-01-13T04:30:26;9.10;94.30
4453;DHT22;2239;48.152;11.584;2023-01-13T04:32:51;9.10;94.20
4453;DHT22;2239;48.152;11.584;2023-01-13T04:35:17;9.10;93.80
4453;DHT22;2239;48.152;11.584;2023-01-13T04:37:43;9.20;93.80
4453;DHT22;2239;48.152;11.584;2023-01-13T04:40:09;9.20;93.70
4453;DHT22;2239;48.152;11.584;2023-01-13T04:42:35;9.20;93.50
4453;DHT22;2239;48.152;11.584;2023-01-13T04:45:00;9.20;93.40
4453;DHT22;2239;48.152;11.584;2023-01-13T04:47:26;9.30;93.20
4453;DHT22;2239;48.152;11.584;2023-01-13T04:49:52;9.30;93.00
4453;DHT22;2239;48.152;11.584;2023-01-13T04:52:17;9.30;93.00
4453;DHT22;2239;48.152;11.584;2023-01-13T04:54:43;9.40;92.90
4453;DHT22;2239;48.152;11.584;2023-01-13T04:57:09;9.40;92.60
4453;DHT22;2239;48.152;11.584;2023-01-13T04:59:35;9.40;92.70
4453;DHT22;2239;48.152;11.584;2023-01-13T05:02:01;9.50;92.70
4453;DHT22;2239;48.152;11.584;2023-01-13T05:04:27;9.40;92.70
4453;DHT22;2239;48.152;11.584;2023-01-13T05:06:54;9.40;92.70
4453;DHT22;2239;48.152;11.584;2023-01-13T05:09:19;9.50;92.90
4453;DHT22;2239;48.152;11.584;2023-01-13T05:11:46;9.50;92.90
4453;DHT22;2239;48.152;11.584;2023-01-13T05:14:31;9.50;92.90
4453;DHT22;2239;48.152;11.584;2023-01-13T05:17:21;9.50;92.90
4453;DHT22;2239;48.152;11.584;2023-01-13T05:19:47;9.50;92.90
4453;DHT22;2239;48.152;11.584;2023-01-13T05:22:13;9.60;93.10
4453;DHT22;2239;48.152;11.584;2023-01-13T05:24:58;9.60;93.00
4453;DHT22;2239;48.152;11.584;2023-01-13T05:27:42;9.60;93.10
4453;DHT22;2239;48.152;11.584;2023-01-13T05:30:09;9.70;93.10
4453;DHT22;2239;48.152;11.584;2023-01-13T05:32:35;9.70;93.10
4453;DHT22;2239;48.152;11.584;2023-01-13T05:35:01;9.70;93.10
4453;DHT22;2239;48.152;11.584;2023-01-13T05:37:27;9.70;93.10
4453;DHT22;2239;48.152;11.584;2023-01-13T05:39:54;9.70;92.90
4453;DHT22;2239;48.152;11.584;2023-01-13T05:43:09;9.80;93.00
4453;DHT22;2239;48.152;11.584;2023-01-13T05:48:37;9.80;92.90
4453;DHT22;2239;48.152;11.584;2023-01-13T05:51:05;9.80;92.80
4453;DHT22;2239;48.152;11.584;2023-01-13T05:53:31;9.80;92.90
4453;DHT22;2239;48.152;11.584;2023-01-13T05:55:58;9.80;92.80
4453;DHT22;2239;48.152;11.584;2023-01-13T05:58:25;9.80;92.80
4453;DHT22;2239;48.152;11.584;2023-01-13T06:00:51;9.80;92.70
4453;DHT22;2239;48.152;11.584;2023-01-13T06:03:18;9.80;92.70
4453;DHT22;2239;48.152;11.584;2023-01-13T06:05:45;9.80;92.90
4453;DHT22;2239;48.152;11.584;2023-01-13T06:08:11;9.80;92.80
4453;DHT22;2239;48.152;11.584;2023-01-13T06:10:37;9.80;92.80
4453;DHT22;2239;48.152;11.584;2023-01-13T06:13:03;9.80;92.80
4453;DHT22;2239;48.152;11.584;2023-01-13T06:15:29;9.80;93.10
4453;DHT22;2239;48.152;11.584;2023-01-13T06:17:55;9.80;93.00
4453;DHT22;2239;48.152;11.584;2023-01-13T06:20:22;9.80;93.20
4453;DHT22;2239;48.152;11.584;2023-01-13T06:22:49;9.80;93.60
4453;DHT22;2239;48.152;11.584;2023-01-13T06:27:56;9.80;93.30
4453;DHT22;2239;48.152;11.584;2023-01-13T06:30:22;9.80;93.40
4453;DHT22;2239;48.152;11.584;2023-01-13T06:32:52;9.80;93.50
4453;DHT22;2239;48.152;11.584;2023-01-13T06:35:24;9.80;93.70
4453;DHT22;2239;48.152;11.584;2023-01-13T06:37:55;9.80;93.80
4453;DHT22;2239;48.152;11.584;2023-01-13T06:40:22;9.80;93.90
4453;DHT22;2239;48.152;11.584;2023-01-13T06:42:49;9.80;94.00
4453;DHT22;2239;48.152;11.584;2023-01-13T06:45:34;9.80;94.10
4453;DHT22;2239;48.152;11.584;2023-01-13T06:48:00;9.80;94.20
4453;DHT22;2239;48.152;11.584;2023-01-13T06:50:26;9.80;94.20
4453;DHT22;2239;48.152;11.584;2023-01-13T06:52:53;9.80;94.20
4453;DHT22;2239;48.152;11.584;2023-01-13T06:55:19;9.80;94.30
4453;DHT22;2239;48.152;11.584;2023-01-13T06:57:55;9.80;94.30
4453;DHT22;2239;48.152;11.584;2023-01-13T07:00:22;9.70;94.30
4453;DHT22;2239;48.152;11.584;2023-01-13T07:02:48;9.70;94.30
4453;DHT22;2239;48.152;11.584;2023-01-13T07:05:14;9.80;94.30
4453;DHT22;2239;48.152;11.584;2023-01-13T07:07:40;9.70;94.30
4453;DHT22;2239;48.152;11.584;2023-01-13T07:10:07;9.70;94.20
4453;DHT22;2239;48.152;11.584;2023-01-13T07:12:36;9.70;94.30
4453;DHT22;2239;48.152;11.584;2023-01-13T07:15:22;9.70;94.30
4453;DHT22;2239;48.152;11.584;2023-01-13T07:17:47;9.70;94.30
4453;DHT22;2239;48.152;11.584;2023-01-13T07:20:14;9.70;94.30
4453;DHT22;2239;48.152;11.584;2023-01-13T07:22:39;9.70;94.30
4453;DHT22;2239;48.152;11.584;2023-01-13T07:25:07;9.70;94.20
4453;DHT22;2239;48.152;11.584;2023-01-13T07:27:32;9.70;94.10
4453;DHT22;2239;48.152;11.584;2023-01-13T07:29:58;9.70;94.10
4453;DHT22;2239;48.152;11.584;2023-01-13T07:32:24;9.70;94.10
4453;DHT22;2239;48.152;11.584;2023-01-13T07:34:50;9.70;94.10
4453;DHT22;2239;48.152;11.584;2023-01-13T07:37:15;9.70;94.10
4453;DHT22;2239;48.152;11.584;2023-01-13T07:39:41;9.70;94.10
4453;DHT22;2239;48.152;11.584;2023-01-13T07:42:07;9.70;94.00
4453;DHT22;2239;48.152;11.584;2023-01-13T07:44:52;9.70;93.90
4453;DHT22;2239;48.152;11.584;2023-01-13T07:47:17;9.70;94.10
4453;DHT22;2239;48.152;11.584;2023-01-13T07:49:47;9.70;93.90
4453;DHT22;2239;48.152;11.584;2023-01-13T07:52:13;9.70;94.00
4453;DHT22;2239;48.152;11.584;2023-01-13T07:54:38;9.70;93.80
4453;DHT22;2239;48.152;11.584;2023-01-13T07:57:04;9.70;93.60
4453;DHT22;2239;48.152;11.584;2023-01-13T07:59:30;9.70;93.70
4453;DHT22;2239;48.152;11.584;2023-01-13T08:02:02;9.80;93.70
4453;DHT22;2239;48.152;11.584;2023-01-13T08:04:27;9.80;93.40
4453;DHT22;2239;48.152;11.584;2023-01-13T08:06:53;9.80;93.40
4453;DHT22;2239;48.152;11.584;2023-01-13T08:09:19;9.80;93.40
4453;DHT22;2239;48.152;11.584;2023-01-13T08:11:44;9.80;93.40
4453;DHT22;2239;48.152;11.584;2023-01-13T08:14:30;9.90;93.40
4453;DHT22;2239;48.152;11.584;2023-01-13T08:16:55;9.90;93.50
4453;DHT22;2239;48.152;11.584;2023-01-13T08:19:21;9.90;93.60
4453;DHT22;2239;48.152;11.584;2023-01-13T08:21:47;9.90;93.60
4453;DHT22;2239;48.152;11.584;2023-01-13T08:24:14;9.90;93.60
4453;DHT22;2239;48.152;11.584;2023-01-13T08:26:40;10.00;93.20
4453;DHT22;2239;48.152;11.584;2023-01-13T08:29:05;10.00;93.20
4453;DHT22;2239;48.152;11.584;2023-01-13T08:31:31;10.00;93.10
4453;DHT22;2239;48.152;11.584;2023-01-13T08:33:58;10.00;93.20
4453;DHT22;2239;48.152;11.584;2023-01-13T08:36:23;10.00;93.00
4453;DHT22;2239;48.152;11.584;2023-01-13T08:38:50;10.00;92.90
4453;DHT22;2239;48.152;11.584;2023-01-13T08:41:15;10.10;92.70
4453;DHT22;2239;48.152;11.584;2023-01-13T08:44:04;10.10;92.50
4453;DHT22;2239;48.152;11.584;2023-01-13T08:46:31;10.20;92.40
4453;DHT22;2239;48.152;11.584;2023-01-13T08:48:56;10.20;92.30
4453;DHT22;2239;48.152;11.584;2023-01-13T08:51:22;10.20;92.40
4453;DHT22;2239;48.152;11.584;2023-01-13T08:53:48;10.20;92.40
4453;DHT22;2239;48.152;11.584;2023-01-13T08:56:13;10.20;92.80
4453;DHT22;2239;48.152;11.584;2023-01-13T08:58:40;10.30;92.40
4453;DHT22;2239;48.152;11.584;2023-01-13T09:01:06;10.30;92.30
4453;DHT22;2239;48.152;11.584;2023-01-13T09:03:33;10.30;92.30
4453;DHT22;2239;48.152;11.584;2023-01-13T09:05:58;10.40;92.10
4453;DHT22;2239;48.152;11.584;2023-01-13T09:08:24;10.40;92.10
4453;DHT22;2239;48.152;11.584;2023-01-13T09:10:50;10.40;91.90
4453;DHT22;2239;48.152;11.584;2023-01-13T09:13:16;10.50;91.60
4453;DHT22;2239;48.152;11.584;2023-01-13T09:15:44;10.50;91.70
4453;DHT22;2239;48.152;11.584;2023-01-13T09:18:12;10.60;91.60
4453;DHT22;2239;48.152;11.584;2023-01-13T09:20:38;10.70;91.60
4453;DHT22;2239;48.152;11.584;2023-01-13T09:23:04;10.80;91.30
4453;DHT22;2239;48.152;11.584;2023-01-13T09:25:30;10.80;91.10
4453;DHT22;2239;48.152;11.584;2023-01-13T09:27:56;10.90;91.10
4453;DHT22;2239;48.152;11.584;2023-01-13T09:30:23;10.90;91.00
4453;DHT22;2239;48.152;11.584;2023-01-13T09:32:49;11.00;90.70
4453;DHT22;2239;48.152;11.584;2023-01-13T09:35:35;11.00;90.70
4453;DHT22;2239;48.152;11.584;2023-01-13T09:38:02;11.00;90.50
4453;DHT22;2239;48.152;11.584;2023-01-13T09:40:28;11.10;90.50
4453;DHT22;2239;48.152;11.584;2023-01-13T09:42:59;11.10;90.20
4453;DHT22;2239;48.152;11.584;2023-01-13T09:45:52;11.20;89.80
4453;DHT22;2239;48.152;11.584;2023-01-13T09:48:31;11.50;89.90
4453;DHT22;2239;48.152;11.584;2023-01-13T09:51:38;11.80;88.30
4453;DHT22;2239;48.152;11.584;2023-01-13T09:54:15;11.90;87.60
4453;DHT22;2239;48.152;11.584;2023-01-13T09:56:46;12.10;87.30
4453;DHT22;2239;48.152;11.584;2023-01-13T09:59:12;12.50;86.00
4453;DHT22;2239;48.152;11.584;2023-01-13T10:02:03;12.60;86.00
4453;DHT22;2239;48.152;11.584;2023-01-13T10:04:37;12.80;85.70
4453;DHT22;2239;48.152;11.584;2023-01-13T10:07:03;13.00;84.60
4453;DHT22;2239;48.152;11.584;2023-01-13T10:09:51;13.10;84.20
4453;DHT22;2239;48.152;11.584;2023-01-13T10:12:22;13.50;84.10
4453;DHT22;2239;48.152;11.584;2023-01-13T10:15:15;14.20;81.40
4453;DHT22;2239;48.152;11.584;2023-01-13T10:17:46;14.40;80.60
4453;DHT22;2239;48.152;11.584;2023-01-13T10:20:25;14.30;80.20
4453;DHT22;2239;48.152;11.584;2023-01-13T10:23:10;14.20;80.70
4453;DHT22;2239;48.152;11.584;2023-01-13T10:28:35;14.40;78.90
4453;DHT22;2239;48.152;11.584;2023-01-13T10:31:03;14.60;78.60
4453;DHT22;2239;48.152;11.584;2023-01-13T10:33:34;14.60;78.30
4453;DHT22;2239;48.152;11.584;2023-01-13T10:36:13;15.00;77.10
4453;DHT22;2239;48.152;11.584;2023-01-13T10:38:40;15.70;75.60
4453;DHT22;2239;48.152;11.584;2023-01-13T10:41:17;16.40;73.10
4453;DHT22;2239;48.152;11.584;2023-01-13T10:43:58;17.10;69.50
4453;DHT22;2239;48.152;11.584;2023-01-13T10:46:26;17.40;68.00
4453;DHT22;2239;48.152;11.584;2023-01-13T10:48:57;18.00;66.20
4453;DHT22;2239;48.152;11.584;2023-01-13T10:51:24;18.40;63.60
4453;DHT22;2239;48.152;11.584;2023-01-13T10:54:04;19.20;61.30
4453;DHT22;2239;48.152;11.584;2023-01-13T10:56:43;19.50;58.90
4453;DHT22;2239;48.152;11.584;2023-01-13T10:59:22;19.10;58.70
4453;DHT22;2239;48.152;11.584;2023-01-13T11:04:43;18.70;58.90
4453;DHT22;2239;48.152;11.584;2023-01-13T11:07:29;19.10;58.40
4453;DHT22;2239;48.152;11.584;2023-01-13T11:13:01;18.20;57.40
4453;DHT22;2239;48.152;11.584;2023-01-13T11:15:51;16.40;61.70
4453;DHT22;2239;48.152;11.584;2023-01-13T11:20:52;14.40;71.80
4453;DHT22;2239;48.152;11.584;2023-01-13T11:23:33;13.80;75.70
4453;DHT22;2239;48.152;11.584;2023-01-13T11:26:10;13.30;80.90
4453;DHT22;2239;48.152;11.584;2023-01-13T11:31:32;12.60;90.50
4453;DHT22;2239;48.152;11.584;2023-01-13T11:34:05;13.00;90.70
4453;DHT22;2239;48.152;11.584;2023-01-13T11:37:02;13.00;90.50
4453;DHT22;2239;48.152;11.584;2023-01-13T11:39:43;12.70;90.30
4453;DHT22;2239;48.152;11.584;2023-01-13T11:42:24;12.50;90.50
4453;DHT22;2239;48.152;11.584;2023-01-13T11:47:36;12.30;91.10
4453;DHT22;2239;48.152;11.584;2023-01-13T11:50:12;12.10;91.00
4453;DHT22;2239;48.152;11.584;2023-01-13T11:52:54;12.00;91.20
4453;DHT22;2239;48.152;11.584;2023-01-13T12:03:39;13.00;90.80
4453;DHT22;2239;48.152;11.584;2023-01-13T12:08:55;13.80;88.00
4453;DHT22;2239;48.152;11.584;2023-01-13T12:15:13;13.30;88.70
4453;DHT22;2239;48.152;11.584;2023-01-13T12:26:09;12.70;90.30
4453;DHT22;2239;48.152;11.584;2023-01-13T12:29:01;12.70;90.30
4453;DHT22;2239;48.152;11.584;2023-01-13T12:31:29;12.40;90.50
4453;DHT22;2239;48.152;11.584;2023-01-13T12:45:26;11.60;91.70
4453;DHT22;2239;48.152;11.584;2023-01-13T12:47:53;11.50;92.00
4453;DHT22;2239;48.152;11.584;2023-01-13T12:52:55;11.40;92.40
4453;DHT22;2239;48.152;11.584;2023-01-13T12:55:31;11.40;92.70
4453;DHT22;2239;48.152;11.584;2023-01-13T13:08:25;10.70;95.40
4453;DHT22;2239;48.152;11.584;2023-01-13T13:13:46;10.80;95.90
4453;DHT22;2239;48.152;11.584;2023-01-13T13:38:11;11.60;93.80
4453;DHT22;2239;48.152;11.584;2023-01-13T13:41:07;11.60;93.30
4453;DHT22;2239;48.152;11.584;2023-01-13T13:43:54;11.40;93.70
4453;DHT22;2239;48.152;11.584;2023-01-13T13:46:48;11.30;93.90
4453;DHT22;2239;48.152;11.584;2023-01-13T13:49:19;11.30;93.90
4453;DHT22;2239;48.152;11.584;2023-01-13T13:51:46;11.30;94.00
4453;DHT22;2239;48.152;11.584;2023-01-13T13:54:18;11.30;93.70
4453;DHT22;2239;48.152;11.584;2023-01-13T13:56:46;11.20;93.60
4453;DHT22;2239;48.152;11.584;2023-01-13T13:59:18;11.20;93.60
4453;DHT22;2239;48.152;11.584;2023-01-13T14:01:50;11.10;93.10
4453;DHT22;2239;48.152;11.584;2023-01-13T14:04:21;11.00;93.30
4453;DHT22;2239;48.152;11.584;2023-01-13T14:06:54;11.10;93.40
4453;DHT22;2239;48.152;11.584;2023-01-13T14:09:22;11.10;93.10
4453;DHT22;2239;48.152;11.584;2023-01-13T14:12:02;11.00;92.90
4453;DHT22;2239;48.152;11.584;2023-01-13T14:14:28;11.00;93.10
4453;DHT22;2239;48.152;11.584;2023-01-13T14:16:54;10.40;94.40
4453;DHT22;2239;48.152;11.584;2023-01-13T14:19:33;9.80;97.20
4453;DHT22;2239;48.152;11.584;2023-01-13T14:22:02;9.00;99.50
4453;DHT22;2239;48.152;11.584;2023-01-13T14:24:29;8.60;99.90
4453;DHT22;2239;48.152;11.584;2023-01-13T14:27:17;8.30;99.90
4453;DHT22;2239;48.152;11.584;2023-01-13T14:29:44;8.00;99.90
4453;DHT22;2239;48.152;11.584;2023-01-13T14:32:17;8.00;99.90
4453;DHT22;2239;48.152;11.584;2023-01-13T14:34:44;7.90;99.90
4453;DHT22;2239;48.152;11.584;2023-01-13T14:39:52;7.70;99.90
4453;DHT22;2239;48.152;11.584;2023-01-13T14:42:18;7.60;99.90
4453;DHT22;2239;48.152;11.584;2023-01-13T14:44:48;7.60;99.90
4453;DHT22;2239;48.152;11.584;2023-01-13T14:47:41;7.60;99.90
4453;DHT22;2239;48.152;11.584;2023-01-13T14:52:49;7.70;99.90
4453;DHT22;2239;48.152;11.584;2023-01-13T14:55:35;7.70;99.90
4453;DHT22;2239;48.152;11.584;2023-01-13T15:00:47;7.80;99.90
4453;DHT22;2239;48.152;11.584;2023-01-13T15:03:15;7.80;99.90
4453;DHT22;2239;48.152;11.584;2023-01-13T15:05:50;7.70;99.90
4453;DHT22;2239;48.152;11.584;2023-01-13T15:08:33;7.60;99.90
4453;DHT22;2239;48.152;11.584;2023-01-13T15:11:01;7.50;99.90
4453;DHT22;2239;48.152;11.584;2023-01-13T15:13:45;7.50;99.90
4453;DHT22;2239;48.152;11.584;2023-01-13T15:16:21;7.50;99.90
4453;DHT22;2239;48.152;11.584;2023-01-13T15:18:47;7.50;99.90
4453;DHT22;2239;48.152;11.584;2023-01-13T15:21:14;7.50;99.90
4453;DHT22;2239;48.152;11.584;2023-01-13T15:23:42;7.40;99.90
4453;DHT22;2239;48.152;11.584;2023-01-13T15:26:22;7.40;99.90
4453;DHT22;2239;48.152;11.584;2023-01-13T15:28:49;7.30;99.90
4453;DHT22;2239;48.152;11.584;2023-01-13T15:31:15;7.30;99.90
4453;DHT22;2239;48.152;11.584;2023-01-13T15:33:40;7.20;99.90
4453;DHT22;2239;48.152;11.584;2023-01-13T15:36:31;7.20;99.90
4453;DHT22;2239;48.152;11.584;2023-01-13T15:38:58;7.30;99.90
4453;DHT22;2239;48.152;11.584;2023-01-13T15:41:25;7.20;99.90
4453;DHT22;2239;48.152;11.584;2023-01-13T15:44:10;7.20;99.90
4453;DHT22;2239;48.152;11.584;2023-01-13T15:46:56;7.10;99.90
4453;DHT22;2239;48.152;11.584;2023-01-13T15:51:52;7.10;99.90
4453;DHT22;2239;48.152;11.584;2023-01-13T15:54:17;7.00;99.90
4453;DHT22;2239;48.152;11.584;2023-01-13T15:56:47;6.90;99.90
4453;DHT22;2239;48.152;11.584;2023-01-13T15:59:18;6.90;99.90
4453;DHT22;2239;48.152;11.584;2023-01-13T16:01:46;6.80;99.90
4453;DHT22;2239;48.152;11.584;2023-01-13T16:04:13;6.80;99.90
4453;DHT22;2239;48.152;11.584;2023-01-13T16:06:39;6.70;99.90
4453;DHT22;2239;48.152;11.584;2023-01-13T16:09:05;6.70;99.90
4453;DHT22;2239;48.152;11.584;2023-01-13T16:11:31;6.70;99.90
4453;DHT22;2239;48.152;11.584;2023-01-13T16:13:56;6.70;99.90
4453;DHT22;2239;48.152;11.584;2023-01-13T16:16:25;6.70;99.90
4453;DHT22;2239;48.152;11.584;2023-01-13T16:18:52;6.70;99.90
4453;DHT22;2239;48.152;11.584;2023-01-13T16:21:19;6.80;99.90
4453;DHT22;2239;48.152;11.584;2023-01-13T16:23:47;6.80;99.90
4453;DHT22;2239;48.152;11.584;2023-01-13T16:26:25;6.80;99.90
4453;DHT22;2239;48.152;11.584;2023-01-13T16:28:53;6.80;99.90
4453;DHT22;2239;48.152;11.584;2023-01-13T16:31:30;6.70;99.90
4453;DHT22;2239;48.152;11.584;2023-01-13T16:33:59;6.70;99.90
4453;DHT22;2239;48.152;11.584;2023-01-13T16:36:26;6.80;99.90
4453;DHT22;2239;48.152;11.584;2023-01-13T16:38:53;6.80;99.90
4453;DHT22;2239;48.152;11.584;2023-01-13T16:41:20;6.80;99.90
4453;DHT22;2239;48.152;11.584;2023-01-13T16:43:46;6.80;99.90
4453;DHT22;2239;48.152;11.584;2023-01-13T16:46:32;6.90;99.90
4453;DHT22;2239;48.152;11.584;2023-01-13T16:49:02;6.90;99.90
4453;DHT22;2239;48.152;11.584;2023-01-13T16:51:28;6.90;99.90
4453;DHT22;2239;48.152;11.584;2023-01-13T16:53:54;6.90;99.90
4453;DHT22;2239;48.152;11.584;2023-01-13T16:56:31;7.00;99.90
4453;DHT22;2239;48.152;11.584;2023-01-13T16:59:00;6.90;99.90
4453;DHT22;2239;48.152;11.584;2023-01-13T17:01:31;7.00;99.90
4453;DHT22;2239;48.152;11.584;2023-01-13T17:03:58;6.90;99.90
4453;DHT22;2239;48.152;11.584;2023-01-13T17:06:38;6.90;99.90
4453;DHT22;2239;48.152;11.584;2023-01-13T17:09:14;6.90;99.90
4453;DHT22;2239;48.152;11.584;2023-01-13T17:11:40;6.90;99.90
4453;DHT22;2239;48.152;11.584;2023-01-13T17:14:06;6.90;99.90
4453;DHT22;2239;48.152;11.584;2023-01-13T17:16:31;6.80;99.90
4453;DHT22;2239;48.152;11.584;2023-01-13T17:18:57;6.80;99.90
4453;DHT22;2239;48.152;11.584;2023-01-13T17:21:23;6.80;99.90
4453;DHT22;2239;48.152;11.584;2023-01-13T17:23:49;6.80;99.90
4453;DHT22;2239;48.152;11.584;2023-01-13T17:26:32;6.80;99.90
4453;DHT22;2239;48.152;11.584;2023-01-13T17:29:04;6.80;99.90
4453;DHT22;2239;48.152;11.584;2023-01-13T17:31:31;6.80;99.90
4453;DHT22;2239;48.152;11.584;2023-01-13T17:33:57;6.70;99.90
4453;DHT22;2239;48.152;11.584;2023-01-13T17:36:22;6.60;99.90
4453;DHT22;2239;48.152;11.584;2023-01-13T17:38:50;6.50;99.90
4453;DHT22;2239;48.152;11.584;2023-01-13T17:41:15;6.50;99.90
4453;DHT22;2239;48.152;11.584;2023-01-13T17:43:41;6.50;99.90
4453;DHT22;2239;48.152;11.584;2023-01-13T17:46:11;6.50;99.90
4453;DHT22;2239;48.152;11.584;2023-01-13T17:48:40;6.40;99.90
4453;DHT22;2239;48.152;11.584;2023-01-13T17:51:11;6.30;99.90
4453;DHT22;2239;48.152;11.584;2023-01-13T17:53:37;6.30;99.90
4453;DHT22;2239;48.152;11.584;2023-01-13T17:56:05;6.30;99.90
4453;DHT22;2239;48.152;11.584;2023-01-13T17:58:31;6.30;99.90
4453;DHT22;2239;48.152;11.584;2023-01-13T18:00:57;6.30;99.90
4453;DHT22;2239;48.152;11.584;2023-01-13T18:03:23;6.40;99.90
4453;DHT22;2239;48.152;11.584;2023-01-13T18:05:48;6.50;99.90
4453;DHT22;2239;48.152;11.584;2023-01-13T18:08:15;6.60;99.90
4453;DHT22;2239;48.152;11.584;2023-01-13T18:10:41;6.60;99.90
4453;DHT22;2239;48.152;11.584;2023-01-13T18:13:07;6.60;99.90
4453;DHT22;2239;48.152;11.584;2023-01-13T18:15:34;6.60;99.90
4453;DHT22;2239;48.152;11.584;2023-01-13T18:18:00;6.70;99.90
4453;DHT22;2239;48.152;11.584;2023-01-13T18:20:26;6.70;99.90
4453;DHT22;2239;48.152;11.584;2023-01-13T18:23:18;6.70;99.90
4453;DHT22;2239;48.152;11.584;2023-01-13T18:26:18;6.80;99.90
4453;DHT22;2239;48.152;11.584;2023-01-13T18:29:03;6.80;99.90
4453;DHT22;2239;48.152;11.584;2023-01-13T18:31:29;6.70;99.90
4453;DHT22;2239;48.152;11.584;2023-01-13T18:33:55;6.70;99.90
4453;DHT22;2239;48.152;11.584;2023-01-13T18:36:21;6.70;99.90
4453;DHT22;2239;48.152;11.584;2023-01-13T18:38:48;6.70;99.90
4453;DHT22;2239;48.152;11.584;2023-01-13T18:41:14;6.70;99.90
4453;DHT22;2239;48.152;11.584;2023-01-13T18:43:58;6.70;99.90